sensor_id;sensor_type;location;lat;lon;timestamp;P1;durP1;ratioP1;P2;durP2;ratioP2
24439;SDS011;12618;54.386;18.394;2022-10-22T00:00:44;78.92;;;55.78;;
24439;SDS011;12618;54.386;18.394;2022-10-22T00:03:15;58.45;;;40.35;;
24439;SDS011;12618;54.386;18.394;2022-10-22T00:05:46;60.98;;;41.88;;
24439;SDS011;12618;54.386;18.394;2022-10-22T00:08:17;62.17;;;41.13;;
24439;SDS011;12618;54.386;18.394;2022-10-22T00:10:48;62.17;;;42.97;;
24439;SDS011;12618;54.386;18.394;2022-10-22T00:13:18;61.28;;;41.25;;
24439;SDS011;12618;54.386;18.394;2022-10-22T00:15:49;55.78;;;37.55;;
24439;SDS011;12618;54.386;18.394;2022-10-22T00:18:19;59.00;;;37.03;;
24439;SDS011;12618;54.386;18.394;2022-10-22T00:20:49;51.70;;;37.33;;
24439;SDS011;12618;54.386;18.394;2022-10-22T00:23:20;59.60;;;38.78;;
24439;SDS011;12618;54.386;18.394;2022-10-22T00:25:51;48.38;;;35.35;;
24439;SDS011;12618;54.386;18.394;2022-10-22T00:28:22;54.18;;;37.38;;
24439;SDS011;12618;54.386;18.394;2022-10-22T00:30:56;52.55;;;37.45;;
24439;SDS011;12618;54.386;18.394;2022-10-22T00:33:27;51.20;;;34.35;;
24439;SDS011;12618;54.386;18.394;2022-10-22T00:35:58;63.08;;;40.35;;
24439;SDS011;12618;54.386;18.394;2022-10-22T00:38:28;63.90;;;40.70;;
24439;SDS011;12618;54.386;18.394;2022-10-22T00:40:59;64.58;;;41.42;;
24439;SDS011;12618;54.386;18.394;2022-10-22T00:43:29;63.87;;;39.83;;
24439;SDS011;12618;54.386;18.394;2022-10-22T00:46:00;57.80;;;37.98;;
24439;SDS011;12618;54.386;18.394;2022-10-22T00:48:30;59.33;;;39.13;;
24439;SDS011;12618;54.386;18.394;2022-10-22T00:51:03;68.30;;;46.10;;
24439;SDS011;12618;54.386;18.394;2022-10-22T00:53:35;60.60;;;41.40;;
24439;SDS011;12618;54.386;18.394;2022-10-22T00:56:06;66.15;;;40.88;;
24439;SDS011;12618;54.386;18.394;2022-10-22T00:58:40;57.48;;;39.83;;
24439;SDS011;12618;54.386;18.394;2022-10-22T01:01:12;59.75;;;39.33;;
24439;SDS011;12618;54.386;18.394;2022-10-22T01:03:42;56.53;;;39.08;;
24439;SDS011;12618;54.386;18.394;2022-10-22T01:06:34;62.25;;;40.85;;
24439;SDS011;12618;54.386;18.394;2022-10-22T01:08:52;56.18;;;40.38;;
24439;SDS011;12618;54.386;18.394;2022-10-22T01:11:23;56.98;;;40.78;;
24439;SDS011;12618;54.386;18.394;2022-10-22T01:14:03;54.90;;;38.63;;
24439;SDS011;12618;54.386;18.394;2022-10-22T01:21:58;59.13;;;39.45;;
24439;SDS011;12618;54.386;18.394;2022-10-22T01:27:25;53.65;;;37.38;;
24439;SDS011;12618;54.386;18.394;2022-10-22T01:29:57;51.48;;;36.98;;
24439;SDS011;12618;54.386;18.394;2022-10-22T01:32:28;51.77;;;35.98;;
24439;SDS011;12618;54.386;18.394;2022-10-22T01:35:01;51.92;;;36.58;;
24439;SDS011;12618;54.386;18.394;2022-10-22T01:37:33;55.25;;;38.28;;
24439;SDS011;12618;54.386;18.394;2022-10-22T01:40:05;52.93;;;38.55;;
24439;SDS011;12618;54.386;18.394;2022-10-22T01:42:40;52.17;;;37.28;;
24439;SDS011;12618;54.386;18.394;2022-10-22T01:58:23;51.10;;;34.83;;
24439;SDS011;12618;54.386;18.394;2022-10-22T02:00:51;51.20;;;35.88;;
24439;SDS011;12618;54.386;18.394;2022-10-22T02:03:26;58.00;;;39.15;;
24439;SDS011;12618;54.386;18.394;2022-10-22T02:05:58;58.23;;;41.30;;
24439;SDS011;12618;54.386;18.394;2022-10-22T02:08:30;58.52;;;41.13;;
24439;SDS011;12618;54.386;18.394;2022-10-22T02:11:01;57.38;;;41.83;;
24439;SDS011;12618;54.386;18.394;2022-10-22T02:13:34;62.70;;;43.83;;
24439;SDS011;12618;54.386;18.394;2022-10-22T02:16:07;57.88;;;41.28;;
24439;SDS011;12618;54.386;18.394;2022-10-22T02:18:39;56.18;;;38.60;;
24439;SDS011;12618;54.386;18.394;2022-10-22T02:21:11;57.85;;;38.20;;
24439;SDS011;12618;54.386;18.394;2022-10-22T02:23:42;53.15;;;35.48;;
24439;SDS011;12618;54.386;18.394;2022-10-22T02:26:21;47.88;;;34.43;;
24439;SDS011;12618;54.386;18.394;2022-10-22T02:28:54;47.83;;;34.85;;
24439;SDS011;12618;54.386;18.394;2022-10-22T02:31:25;55.10;;;35.30;;
24439;SDS011;12618;54.386;18.394;2022-10-22T02:33:56;50.28;;;33.78;;
24439;SDS011;12618;54.386;18.394;2022-10-22T02:36:27;50.28;;;35.43;;
24439;SDS011;12618;54.386;18.394;2022-10-22T02:38:58;55.92;;;36.65;;
24439;SDS011;12618;54.386;18.394;2022-10-22T02:41:29;55.25;;;38.02;;
24439;SDS011;12618;54.386;18.394;2022-10-22T02:44:00;50.88;;;34.65;;
24439;SDS011;12618;54.386;18.394;2022-10-22T02:46:32;55.38;;;35.85;;
24439;SDS011;12618;54.386;18.394;2022-10-22T02:49:02;61.85;;;40.78;;
24439;SDS011;12618;54.386;18.394;2022-10-22T02:51:33;53.60;;;36.53;;
24439;SDS011;12618;54.386;18.394;2022-10-22T02:54:03;51.98;;;37.13;;
24439;SDS011;12618;54.386;18.394;2022-10-22T02:56:34;59.75;;;39.98;;
24439;SDS011;12618;54.386;18.394;2022-10-22T02:59:04;55.58;;;37.48;;
24439;SDS011;12618;54.386;18.394;2022-10-22T03:01:35;51.68;;;36.83;;
24439;SDS011;12618;54.386;18.394;2022-10-22T03:04:05;58.10;;;38.80;;
24439;SDS011;12618;54.386;18.394;2022-10-22T03:06:36;57.83;;;37.83;;
24439;SDS011;12618;54.386;18.394;2022-10-22T03:09:06;53.10;;;36.58;;
24439;SDS011;12618;54.386;18.394;2022-10-22T03:11:41;56.73;;;38.02;;
24439;SDS011;12618;54.386;18.394;2022-10-22T03:14:11;56.42;;;38.78;;
24439;SDS011;12618;54.386;18.394;2022-10-22T03:16:42;59.77;;;38.63;;
24439;SDS011;12618;54.386;18.394;2022-10-22T03:19:12;51.85;;;36.98;;
24439;SDS011;12618;54.386;18.394;2022-10-22T03:21:44;55.30;;;35.95;;
24439;SDS011;12618;54.386;18.394;2022-10-22T03:24:16;57.45;;;38.53;;
24439;SDS011;12618;54.386;18.394;2022-10-22T03:26:48;53.48;;;36.05;;
24439;SDS011;12618;54.386;18.394;2022-10-22T03:29:20;57.45;;;37.75;;
24439;SDS011;12618;54.386;18.394;2022-10-22T03:31:51;58.85;;;39.08;;
24439;SDS011;12618;54.386;18.394;2022-10-22T03:34:22;58.00;;;39.18;;
24439;SDS011;12618;54.386;18.394;2022-10-22T03:36:53;61.92;;;41.58;;
24439;SDS011;12618;54.386;18.394;2022-10-22T03:39:23;57.43;;;39.53;;
24439;SDS011;12618;54.386;18.394;2022-10-22T03:41:54;59.10;;;38.95;;
24439;SDS011;12618;54.386;18.394;2022-10-22T03:44:24;53.48;;;37.38;;
24439;SDS011;12618;54.386;18.394;2022-10-22T03:46:58;57.50;;;39.90;;
24439;SDS011;12618;54.386;18.394;2022-10-22T03:49:28;53.63;;;37.38;;
24439;SDS011;12618;54.386;18.394;2022-10-22T03:52:06;52.88;;;39.25;;
24439;SDS011;12618;54.386;18.394;2022-10-22T03:54:37;53.92;;;38.23;;
24439;SDS011;12618;54.386;18.394;2022-10-22T03:57:07;58.92;;;41.33;;
24439;SDS011;12618;54.386;18.394;2022-10-22T03:59:39;56.83;;;38.85;;
24439;SDS011;12618;54.386;18.394;2022-10-22T04:02:11;59.05;;;39.33;;
24439;SDS011;12618;54.386;18.394;2022-10-22T04:04:41;58.68;;;40.65;;
24439;SDS011;12618;54.386;18.394;2022-10-22T04:07:12;55.88;;;38.75;;
24439;SDS011;12618;54.386;18.394;2022-10-22T04:09:42;53.45;;;38.33;;
24439;SDS011;12618;54.386;18.394;2022-10-22T04:12:13;53.58;;;38.08;;
24439;SDS011;12618;54.386;18.394;2022-10-22T04:14:43;59.27;;;40.03;;
24439;SDS011;12618;54.386;18.394;2022-10-22T04:17:14;61.73;;;41.53;;
24439;SDS011;12618;54.386;18.394;2022-10-22T04:19:44;53.75;;;39.75;;
24439;SDS011;12618;54.386;18.394;2022-10-22T04:22:15;55.60;;;39.18;;
24439;SDS011;12618;54.386;18.394;2022-10-22T04:24:48;57.17;;;39.90;;
24439;SDS011;12618;54.386;18.394;2022-10-22T04:27:19;53.05;;;36.73;;
24439;SDS011;12618;54.386;18.394;2022-10-22T04:29:49;54.88;;;36.40;;
24439;SDS011;12618;54.386;18.394;2022-10-22T04:32:20;52.08;;;37.25;;
24439;SDS011;12618;54.386;18.394;2022-10-22T04:34:50;55.78;;;39.85;;
24439;SDS011;12618;54.386;18.394;2022-10-22T04:37:21;81.10;;;54.42;;
24439;SDS011;12618;54.386;18.394;2022-10-22T04:39:51;64.35;;;45.12;;
24439;SDS011;12618;54.386;18.394;2022-10-22T04:42:22;73.42;;;48.38;;
24439;SDS011;12618;54.386;18.394;2022-10-22T04:44:53;64.03;;;42.73;;
24439;SDS011;12618;54.386;18.394;2022-10-22T04:47:23;63.55;;;42.33;;
24439;SDS011;12618;54.386;18.394;2022-10-22T04:49:54;63.70;;;41.85;;
24439;SDS011;12618;54.386;18.394;2022-10-22T04:52:24;53.87;;;38.35;;
24439;SDS011;12618;54.386;18.394;2022-10-22T04:54:55;59.53;;;39.03;;
24439;SDS011;12618;54.386;18.394;2022-10-22T04:57:28;54.93;;;38.65;;
24439;SDS011;12618;54.386;18.394;2022-10-22T04:59:57;58.80;;;38.75;;
24439;SDS011;12618;54.386;18.394;2022-10-22T05:02:28;55.78;;;39.30;;
24439;SDS011;12618;54.386;18.394;2022-10-22T05:04:58;56.13;;;38.60;;
24439;SDS011;12618;54.386;18.394;2022-10-22T05:07:29;52.40;;;37.60;;
24439;SDS011;12618;54.386;18.394;2022-10-22T05:09:59;57.83;;;39.40;;
24439;SDS011;12618;54.386;18.394;2022-10-22T05:12:31;55.52;;;38.85;;
24439;SDS011;12618;54.386;18.394;2022-10-22T05:15:02;55.30;;;39.65;;
24439;SDS011;12618;54.386;18.394;2022-10-22T05:17:34;59.90;;;40.33;;
24439;SDS011;12618;54.386;18.394;2022-10-22T05:20:05;59.42;;;40.08;;
24439;SDS011;12618;54.386;18.394;2022-10-22T05:22:35;57.38;;;41.77;;
24439;SDS011;12618;54.386;18.394;2022-10-22T05:25:06;63.30;;;42.03;;
24439;SDS011;12618;54.386;18.394;2022-10-22T05:27:37;61.40;;;40.25;;
24439;SDS011;12618;54.386;18.394;2022-10-22T05:30:07;52.73;;;36.77;;
24439;SDS011;12618;54.386;18.394;2022-10-22T05:32:38;61.13;;;41.37;;
24439;SDS011;12618;54.386;18.394;2022-10-22T05:35:08;56.98;;;39.55;;
24439;SDS011;12618;54.386;18.394;2022-10-22T05:37:38;59.70;;;40.63;;
24439;SDS011;12618;54.386;18.394;2022-10-22T05:40:09;68.80;;;44.63;;
24439;SDS011;12618;54.386;18.394;2022-10-22T05:42:40;64.62;;;43.52;;
24439;SDS011;12618;54.386;18.394;2022-10-22T05:45:10;57.38;;;39.98;;
24439;SDS011;12618;54.386;18.394;2022-10-22T05:47:41;58.98;;;41.42;;
24439;SDS011;12618;54.386;18.394;2022-10-22T05:50:11;60.70;;;40.63;;
24439;SDS011;12618;54.386;18.394;2022-10-22T05:52:41;59.58;;;39.27;;
24439;SDS011;12618;54.386;18.394;2022-10-22T05:55:16;56.50;;;38.90;;
24439;SDS011;12618;54.386;18.394;2022-10-22T05:57:44;63.28;;;41.70;;
24439;SDS011;12618;54.386;18.394;2022-10-22T06:00:15;55.20;;;39.45;;
24439;SDS011;12618;54.386;18.394;2022-10-22T06:02:48;53.45;;;38.02;;
24439;SDS011;12618;54.386;18.394;2022-10-22T06:05:17;54.50;;;38.10;;
24439;SDS011;12618;54.386;18.394;2022-10-22T06:07:51;55.00;;;38.88;;
24439;SDS011;12618;54.386;18.394;2022-10-22T06:10:22;56.18;;;39.42;;
24439;SDS011;12618;54.386;18.394;2022-10-22T06:12:52;58.45;;;38.95;;
24439;SDS011;12618;54.386;18.394;2022-10-22T06:15:23;62.17;;;39.20;;
24439;SDS011;12618;54.386;18.394;2022-10-22T06:17:53;56.77;;;40.08;;
24439;SDS011;12618;54.386;18.394;2022-10-22T06:20:24;62.13;;;43.30;;
24439;SDS011;12618;54.386;18.394;2022-10-22T06:22:54;59.15;;;40.63;;
24439;SDS011;12618;54.386;18.394;2022-10-22T06:25:25;59.42;;;40.17;;
24439;SDS011;12618;54.386;18.394;2022-10-22T06:27:55;57.03;;;41.02;;
24439;SDS011;12618;54.386;18.394;2022-10-22T06:30:26;64.53;;;43.20;;
24439;SDS011;12618;54.386;18.394;2022-10-22T06:32:57;59.77;;;42.30;;
24439;SDS011;12618;54.386;18.394;2022-10-22T06:35:27;60.85;;;40.25;;
24439;SDS011;12618;54.386;18.394;2022-10-22T06:37:58;68.33;;;44.38;;
24439;SDS011;12618;54.386;18.394;2022-10-22T06:40:28;70.47;;;47.13;;
24439;SDS011;12618;54.386;18.394;2022-10-22T06:42:59;66.15;;;43.65;;
24439;SDS011;12618;54.386;18.394;2022-10-22T06:45:29;63.80;;;42.55;;
24439;SDS011;12618;54.386;18.394;2022-10-22T06:48:00;60.55;;;42.05;;
24439;SDS011;12618;54.386;18.394;2022-10-22T06:50:30;60.73;;;40.35;;
24439;SDS011;12618;54.386;18.394;2022-10-22T06:53:01;57.58;;;39.65;;
24439;SDS011;12618;54.386;18.394;2022-10-22T06:55:34;63.90;;;43.75;;
24439;SDS011;12618;54.386;18.394;2022-10-22T06:58:05;63.57;;;42.60;;
24439;SDS011;12618;54.386;18.394;2022-10-22T07:00:36;61.23;;;41.88;;
24439;SDS011;12618;54.386;18.394;2022-10-22T07:03:06;61.02;;;42.90;;
24439;SDS011;12618;54.386;18.394;2022-10-22T07:05:38;60.58;;;42.67;;
24439;SDS011;12618;54.386;18.394;2022-10-22T07:08:08;68.55;;;46.02;;
24439;SDS011;12618;54.386;18.394;2022-10-22T07:10:41;65.12;;;44.25;;
24439;SDS011;12618;54.386;18.394;2022-10-22T07:13:11;61.60;;;43.08;;
24439;SDS011;12618;54.386;18.394;2022-10-22T07:15:42;63.42;;;44.40;;
24439;SDS011;12618;54.386;18.394;2022-10-22T07:18:12;80.28;;;51.23;;
24439;SDS011;12618;54.386;18.394;2022-10-22T07:20:42;79.97;;;51.92;;
24439;SDS011;12618;54.386;18.394;2022-10-22T07:23:13;66.70;;;46.42;;
24439;SDS011;12618;54.386;18.394;2022-10-22T07:25:44;75.37;;;53.28;;
24439;SDS011;12618;54.386;18.394;2022-10-22T07:28:15;72.37;;;52.70;;
24439;SDS011;12618;54.386;18.394;2022-10-22T07:30:45;74.72;;;54.75;;
24439;SDS011;12618;54.386;18.394;2022-10-22T07:33:16;73.60;;;51.45;;
24439;SDS011;12618;54.386;18.394;2022-10-22T07:35:49;72.58;;;49.75;;
24439;SDS011;12618;54.386;18.394;2022-10-22T07:38:19;68.35;;;47.75;;
24439;SDS011;12618;54.386;18.394;2022-10-22T07:40:50;67.05;;;47.65;;
24439;SDS011;12618;54.386;18.394;2022-10-22T07:43:21;79.62;;;49.35;;
24439;SDS011;12618;54.386;18.394;2022-10-22T07:45:52;66.92;;;47.13;;
24439;SDS011;12618;54.386;18.394;2022-10-22T07:48:24;69.50;;;49.42;;
24439;SDS011;12618;54.386;18.394;2022-10-22T07:50:55;67.90;;;47.67;;
24439;SDS011;12618;54.386;18.394;2022-10-22T07:53:27;70.57;;;48.28;;
24439;SDS011;12618;54.386;18.394;2022-10-22T07:55:57;61.42;;;44.63;;
24439;SDS011;12618;54.386;18.394;2022-10-22T07:58:28;67.37;;;45.60;;
24439;SDS011;12618;54.386;18.394;2022-10-22T08:00:59;63.50;;;44.03;;
24439;SDS011;12618;54.386;18.394;2022-10-22T08:03:30;66.12;;;46.25;;
24439;SDS011;12618;54.386;18.394;2022-10-22T08:06:01;68.75;;;46.05;;
24439;SDS011;12618;54.386;18.394;2022-10-22T08:08:32;66.60;;;46.05;;
24439;SDS011;12618;54.386;18.394;2022-10-22T08:11:03;63.35;;;45.65;;
24439;SDS011;12618;54.386;18.394;2022-10-22T08:13:34;75.67;;;50.28;;
24439;SDS011;12618;54.386;18.394;2022-10-22T08:16:05;67.17;;;47.27;;
24439;SDS011;12618;54.386;18.394;2022-10-22T08:18:35;65.85;;;46.18;;
24439;SDS011;12618;54.386;18.394;2022-10-22T08:21:07;71.50;;;48.10;;
24439;SDS011;12618;54.386;18.394;2022-10-22T08:23:38;64.05;;;45.33;;
24439;SDS011;12618;54.386;18.394;2022-10-22T08:26:09;66.25;;;46.58;;
24439;SDS011;12618;54.386;18.394;2022-10-22T08:28:39;68.35;;;48.05;;
24439;SDS011;12618;54.386;18.394;2022-10-22T08:31:10;66.17;;;44.45;;
24439;SDS011;12618;54.386;18.394;2022-10-22T08:33:40;66.12;;;44.58;;
24439;SDS011;12618;54.386;18.394;2022-10-22T08:36:11;64.58;;;45.78;;
24439;SDS011;12618;54.386;18.394;2022-10-22T08:38:42;60.85;;;43.08;;
24439;SDS011;12618;54.386;18.394;2022-10-22T08:41:15;59.23;;;43.05;;
24439;SDS011;12618;54.386;18.394;2022-10-22T08:48:59;59.80;;;40.90;;
24439;SDS011;12618;54.386;18.394;2022-10-22T08:51:34;63.65;;;42.60;;
24439;SDS011;12618;54.386;18.394;2022-10-22T08:54:20;62.77;;;41.37;;
24439;SDS011;12618;54.386;18.394;2022-10-22T08:56:55;56.92;;;38.85;;
24439;SDS011;12618;54.386;18.394;2022-10-22T08:59:24;56.85;;;38.20;;
24439;SDS011;12618;54.386;18.394;2022-10-22T09:01:54;67.62;;;41.73;;
24439;SDS011;12618;54.386;18.394;2022-10-22T09:04:30;68.62;;;43.15;;
24439;SDS011;12618;54.386;18.394;2022-10-22T09:07:00;65.32;;;41.30;;
24439;SDS011;12618;54.386;18.394;2022-10-22T09:12:04;65.65;;;40.75;;
24439;SDS011;12618;54.386;18.394;2022-10-22T09:14:35;60.12;;;39.08;;
24439;SDS011;12618;54.386;18.394;2022-10-22T09:22:39;63.55;;;39.63;;
24439;SDS011;12618;54.386;18.394;2022-10-22T09:25:15;63.33;;;40.43;;
24439;SDS011;12618;54.386;18.394;2022-10-22T09:27:45;70.75;;;42.20;;
24439;SDS011;12618;54.386;18.394;2022-10-22T09:30:32;71.92;;;45.12;;
24439;SDS011;12618;54.386;18.394;2022-10-22T09:33:01;70.53;;;43.20;;
24439;SDS011;12618;54.386;18.394;2022-10-22T09:35:33;68.57;;;45.35;;
24439;SDS011;12618;54.386;18.394;2022-10-22T09:38:05;65.90;;;43.38;;
24439;SDS011;12618;54.386;18.394;2022-10-22T09:40:48;65.83;;;41.50;;
24439;SDS011;12618;54.386;18.394;2022-10-22T09:43:16;66.72;;;41.68;;
24439;SDS011;12618;54.386;18.394;2022-10-22T09:45:46;67.22;;;42.00;;
24439;SDS011;12618;54.386;18.394;2022-10-22T09:50:54;62.85;;;39.65;;
24439;SDS011;12618;54.386;18.394;2022-10-22T09:53:25;57.73;;;36.88;;
24439;SDS011;12618;54.386;18.394;2022-10-22T09:55:58;57.05;;;35.35;;
24439;SDS011;12618;54.386;18.394;2022-10-22T09:58:39;58.68;;;36.93;;
24439;SDS011;12618;54.386;18.394;2022-10-22T10:01:01;57.65;;;33.83;;
24439;SDS011;12618;54.386;18.394;2022-10-22T10:03:34;53.80;;;33.73;;
24439;SDS011;12618;54.386;18.394;2022-10-22T10:06:05;53.25;;;33.83;;
24439;SDS011;12618;54.386;18.394;2022-10-22T10:08:36;51.00;;;33.08;;
24439;SDS011;12618;54.386;18.394;2022-10-22T10:11:12;55.58;;;34.60;;
24439;SDS011;12618;54.386;18.394;2022-10-22T10:13:46;49.98;;;31.55;;
24439;SDS011;12618;54.386;18.394;2022-10-22T10:16:24;51.20;;;31.85;;
24439;SDS011;12618;54.386;18.394;2022-10-22T10:27:10;45.28;;;29.98;;
24439;SDS011;12618;54.386;18.394;2022-10-22T10:59:30;35.15;;;24.75;;
24439;SDS011;12618;54.386;18.394;2022-10-22T11:02:11;38.20;;;25.23;;
24439;SDS011;12618;54.386;18.394;2022-10-22T11:07:19;34.58;;;24.85;;
24439;SDS011;12618;54.386;18.394;2022-10-22T11:09:52;44.55;;;28.95;;
24439;SDS011;12618;54.386;18.394;2022-10-22T11:12:24;33.57;;;24.87;;
24439;SDS011;12618;54.386;18.394;2022-10-22T11:15:00;35.38;;;23.40;;
24439;SDS011;12618;54.386;18.394;2022-10-22T11:17:35;34.23;;;22.80;;
24439;SDS011;12618;54.386;18.394;2022-10-22T11:20:14;33.42;;;23.83;;
24439;SDS011;12618;54.386;18.394;2022-10-22T11:22:45;32.10;;;21.68;;
24439;SDS011;12618;54.386;18.394;2022-10-22T11:25:20;30.23;;;21.33;;
24439;SDS011;12618;54.386;18.394;2022-10-22T11:30:40;33.33;;;22.45;;
24439;SDS011;12618;54.386;18.394;2022-10-22T11:33:18;32.48;;;22.70;;
24439;SDS011;12618;54.386;18.394;2022-10-22T11:35:46;41.20;;;24.02;;
24439;SDS011;12618;54.386;18.394;2022-10-22T11:38:24;37.33;;;21.93;;
24439;SDS011;12618;54.386;18.394;2022-10-22T11:43:28;34.13;;;22.13;;
24439;SDS011;12618;54.386;18.394;2022-10-22T11:46:02;36.45;;;22.27;;
24439;SDS011;12618;54.386;18.394;2022-10-22T11:48:36;35.28;;;22.45;;
24439;SDS011;12618;54.386;18.394;2022-10-22T11:53:56;39.78;;;23.62;;
24439;SDS011;12618;54.386;18.394;2022-10-22T11:56:35;41.20;;;24.18;;
24439;SDS011;12618;54.386;18.394;2022-10-22T11:59:00;43.75;;;24.90;;
24439;SDS011;12618;54.386;18.394;2022-10-22T12:01:39;42.45;;;24.60;;
24439;SDS011;12618;54.386;18.394;2022-10-22T12:04:21;43.28;;;24.25;;
24439;SDS011;12618;54.386;18.394;2022-10-22T12:06:55;49.30;;;25.77;;
24439;SDS011;12618;54.386;18.394;2022-10-22T12:09:25;56.45;;;28.45;;
24439;SDS011;12618;54.386;18.394;2022-10-22T12:12:18;56.73;;;29.55;;
24439;SDS011;12618;54.386;18.394;2022-10-22T12:14:49;57.95;;;29.15;;
24439;SDS011;12618;54.386;18.394;2022-10-22T12:17:15;58.55;;;30.52;;
24439;SDS011;12618;54.386;18.394;2022-10-22T12:20:06;63.23;;;31.93;;
24439;SDS011;12618;54.386;18.394;2022-10-22T12:24:55;69.10;;;34.43;;
24439;SDS011;12618;54.386;18.394;2022-10-22T12:27:39;65.12;;;32.95;;
24439;SDS011;12618;54.386;18.394;2022-10-22T12:30:23;65.55;;;33.80;;
24439;SDS011;12618;54.386;18.394;2022-10-22T12:32:56;67.30;;;33.48;;
24439;SDS011;12618;54.386;18.394;2022-10-22T12:35:28;66.62;;;34.48;;
24439;SDS011;12618;54.386;18.394;2022-10-22T12:38:04;64.37;;;33.83;;
24439;SDS011;12618;54.386;18.394;2022-10-22T12:40:32;70.62;;;35.63;;
24439;SDS011;12618;54.386;18.394;2022-10-22T12:43:10;76.35;;;39.30;;
24439;SDS011;12618;54.386;18.394;2022-10-22T12:45:38;84.03;;;41.45;;
24439;SDS011;12618;54.386;18.394;2022-10-22T12:48:29;81.85;;;40.58;;
24439;SDS011;12618;54.386;18.394;2022-10-22T12:51:02;84.70;;;42.25;;
24439;SDS011;12618;54.386;18.394;2022-10-22T12:53:37;91.85;;;42.93;;
24439;SDS011;12618;54.386;18.394;2022-10-22T12:56:10;87.17;;;43.15;;
24439;SDS011;12618;54.386;18.394;2022-10-22T12:58:49;95.45;;;46.25;;
24439;SDS011;12618;54.386;18.394;2022-10-22T13:01:23;84.35;;;42.23;;
24439;SDS011;12618;54.386;18.394;2022-10-22T13:07:02;94.97;;;46.20;;
24439;SDS011;12618;54.386;18.394;2022-10-22T13:09:23;100.82;;;46.37;;
24439;SDS011;12618;54.386;18.394;2022-10-22T13:12:12;94.90;;;43.95;;
24439;SDS011;12618;54.386;18.394;2022-10-22T13:14:32;93.65;;;44.45;;
24439;SDS011;12618;54.386;18.394;2022-10-22T13:33:03;88.90;;;41.98;;
24439;SDS011;12618;54.386;18.394;2022-10-22T13:35:31;103.90;;;44.93;;
24439;SDS011;12618;54.386;18.394;2022-10-22T13:38:04;86.00;;;41.13;;
24439;SDS011;12618;54.386;18.394;2022-10-22T13:40:34;92.20;;;39.00;;
24439;SDS011;12618;54.386;18.394;2022-10-22T13:43:09;88.27;;;37.85;;
24439;SDS011;12618;54.386;18.394;2022-10-22T13:45:39;84.95;;;36.13;;
24439;SDS011;12618;54.386;18.394;2022-10-22T13:48:14;80.22;;;36.25;;
24439;SDS011;12618;54.386;18.394;2022-10-22T13:50:45;84.47;;;33.80;;
24439;SDS011;12618;54.386;18.394;2022-10-22T13:53:29;77.80;;;34.03;;
24439;SDS011;12618;54.386;18.394;2022-10-22T13:55:48;89.75;;;34.90;;
24439;SDS011;12618;54.386;18.394;2022-10-22T13:58:21;84.10;;;34.53;;
24439;SDS011;12618;54.386;18.394;2022-10-22T14:00:56;77.72;;;32.93;;
24439;SDS011;12618;54.386;18.394;2022-10-22T14:03:28;80.20;;;33.65;;
24439;SDS011;12618;54.386;18.394;2022-10-22T14:05:59;84.62;;;34.18;;
24439;SDS011;12618;54.386;18.394;2022-10-22T14:08:30;85.28;;;35.17;;
24439;SDS011;12618;54.386;18.394;2022-10-22T14:11:01;89.42;;;35.03;;
24439;SDS011;12618;54.386;18.394;2022-10-22T14:13:31;90.50;;;36.13;;
24439;SDS011;12618;54.386;18.394;2022-10-22T14:16:02;96.30;;;36.65;;
24439;SDS011;12618;54.386;18.394;2022-10-22T14:18:34;85.12;;;35.43;;
24439;SDS011;12618;54.386;18.394;2022-10-22T14:21:05;82.42;;;32.60;;
24439;SDS011;12618;54.386;18.394;2022-10-22T14:23:36;80.60;;;31.95;;
24439;SDS011;12618;54.386;18.394;2022-10-22T14:26:11;86.10;;;32.30;;
24439;SDS011;12618;54.386;18.394;2022-10-22T14:28:41;84.07;;;32.25;;
24439;SDS011;12618;54.386;18.394;2022-10-22T14:31:11;79.47;;;33.15;;
24439;SDS011;12618;54.386;18.394;2022-10-22T14:33:42;82.62;;;33.23;;
24439;SDS011;12618;54.386;18.394;2022-10-22T14:36:12;74.70;;;32.30;;
24439;SDS011;12618;54.386;18.394;2022-10-22T14:38:44;71.15;;;32.03;;
24439;SDS011;12618;54.386;18.394;2022-10-22T14:41:17;72.97;;;30.12;;
24439;SDS011;12618;54.386;18.394;2022-10-22T14:43:48;82.37;;;31.43;;
24439;SDS011;12618;54.386;18.394;2022-10-22T14:46:18;79.10;;;34.88;;
24439;SDS011;12618;54.386;18.394;2022-10-22T14:48:49;71.97;;;33.98;;
24439;SDS011;12618;54.386;18.394;2022-10-22T14:51:20;72.05;;;31.65;;
24439;SDS011;12618;54.386;18.394;2022-10-22T14:53:51;76.87;;;32.95;;
24439;SDS011;12618;54.386;18.394;2022-10-22T14:56:21;80.75;;;34.38;;
24439;SDS011;12618;54.386;18.394;2022-10-22T14:58:52;68.70;;;31.42;;
24439;SDS011;12618;54.386;18.394;2022-10-22T15:01:22;72.80;;;31.77;;
24439;SDS011;12618;54.386;18.394;2022-10-22T15:03:53;71.60;;;31.87;;
24439;SDS011;12618;54.386;18.394;2022-10-22T15:06:23;82.20;;;34.18;;
24439;SDS011;12618;54.386;18.394;2022-10-22T15:08:54;75.95;;;32.67;;
24439;SDS011;12618;54.386;18.394;2022-10-22T15:11:24;71.45;;;31.60;;
24439;SDS011;12618;54.386;18.394;2022-10-22T15:13:55;78.62;;;35.23;;
24439;SDS011;12618;54.386;18.394;2022-10-22T15:16:26;77.20;;;33.35;;
24439;SDS011;12618;54.386;18.394;2022-10-22T15:18:57;85.28;;;36.70;;
24439;SDS011;12618;54.386;18.394;2022-10-22T15:21:29;80.28;;;33.58;;
24439;SDS011;12618;54.386;18.394;2022-10-22T15:24:00;81.95;;;32.75;;
24439;SDS011;12618;54.386;18.394;2022-10-22T15:26:30;82.62;;;35.55;;
24439;SDS011;12618;54.386;18.394;2022-10-22T15:29:02;82.57;;;34.90;;
24439;SDS011;12618;54.386;18.394;2022-10-22T15:34:22;83.33;;;41.10;;
24439;SDS011;12618;54.386;18.394;2022-10-22T15:36:54;84.10;;;37.08;;
24439;SDS011;12618;54.386;18.394;2022-10-22T15:39:25;77.47;;;33.75;;
24439;SDS011;12618;54.386;18.394;2022-10-22T15:41:55;68.25;;;30.55;;
24439;SDS011;12618;54.386;18.394;2022-10-22T15:44:28;76.50;;;31.52;;
24439;SDS011;12618;54.386;18.394;2022-10-22T15:46:58;74.37;;;31.55;;
24439;SDS011;12618;54.386;18.394;2022-10-22T15:49:30;85.83;;;32.25;;
24439;SDS011;12618;54.386;18.394;2022-10-22T15:52:01;83.42;;;31.73;;
24439;SDS011;12618;54.386;18.394;2022-10-22T15:54:31;88.37;;;31.20;;
24439;SDS011;12618;54.386;18.394;2022-10-22T15:57:02;87.50;;;31.20;;
24439;SDS011;12618;54.386;18.394;2022-10-22T15:59:34;87.47;;;31.95;;
24439;SDS011;12618;54.386;18.394;2022-10-22T16:02:05;94.00;;;31.27;;
24439;SDS011;12618;54.386;18.394;2022-10-22T16:04:37;124.40;;;32.33;;
24439;SDS011;12618;54.386;18.394;2022-10-22T16:07:07;106.63;;;31.05;;
24439;SDS011;12618;54.386;18.394;2022-10-22T16:09:38;134.37;;;32.33;;
24439;SDS011;12618;54.386;18.394;2022-10-22T16:12:08;112.17;;;32.53;;
24439;SDS011;12618;54.386;18.394;2022-10-22T16:14:39;114.70;;;31.05;;
24439;SDS011;12618;54.386;18.394;2022-10-22T16:17:09;119.80;;;30.97;;
24439;SDS011;12618;54.386;18.394;2022-10-22T16:19:40;110.17;;;30.92;;
24439;SDS011;12618;54.386;18.394;2022-10-22T16:22:11;117.80;;;33.55;;
24439;SDS011;12618;54.386;18.394;2022-10-22T16:24:43;122.42;;;31.62;;